Estación de San Rafael
Ultimos registro cada 15 minutos 65
| N° | Estación | Fecha / Hora | Temperatura | Humedad | Lluvia | Velocidad | Dirección | Radiación | Presion |
| 65 | San Rafael | 10-05-2026 16:00 | 19,4 | 50,6 | 0 | 1 | 166 | 371,9 | 994,9 |
| 64 | San Rafael | 10-05-2026 15:45 | 19,3 | 48,3 | 0 | 1 | 163 | 424,4 | 994,8 |
| 63 | San Rafael | 10-05-2026 15:30 | 19,3 | 49 | 0 | 1,5 | 178 | 471,9 | 994,8 |
| 62 | San Rafael | 10-05-2026 15:15 | 18,7 | 49,6 | 0 | 1,5 | 175 | 463,1 | 994,8 |
| 61 | San Rafael | 10-05-2026 15:00 | 18,9 | 50,8 | 0 | 1 | 195 | 256,9 | 994,9 |
| 60 | San Rafael | 10-05-2026 14:45 | 18,2 | 50,4 | 0 | 1,5 | 183 | 601,9 | 995 |
| 59 | San Rafael | 10-05-2026 14:30 | 18,3 | 54 | 0 | 1 | 187 | 635,6 | 995 |
| 58 | San Rafael | 10-05-2026 14:15 | 17,9 | 52,4 | 0 | 1 | 195 | 669,4 | 995 |
| 57 | San Rafael | 10-05-2026 14:00 | 17,5 | 54,4 | 0 | 0,5 | 195 | 695,6 | 995,1 |
| 56 | San Rafael | 10-05-2026 13:45 | 17,3 | 56,3 | 0 | 0,5 | 166 | 650,6 | 995 |
| 55 | San Rafael | 10-05-2026 13:30 | 16,6 | 58,5 | 0 | 0,5 | 143 | 735,6 | 995,3 |
| 54 | San Rafael | 10-05-2026 13:15 | 16,3 | 61,7 | 0 | 0,5 | 138 | 613,1 | 995,4 |
| 53 | San Rafael | 10-05-2026 13:00 | 15,8 | 61 | 0 | 0 | 173 | 761,9 | 995,6 |
| 52 | San Rafael | 10-05-2026 12:45 | 15,3 | 61,7 | 0 | 0,5 | 166 | 766,9 | 996 |
| 51 | San Rafael | 10-05-2026 12:30 | 14,9 | 62,9 | 0 | 0,5 | 192 | 766,9 | 996,4 |
| 50 | San Rafael | 10-05-2026 12:15 | 14,3 | 67,6 | 0 | 0 | 168 | 759,4 | 996,4 |
| 49 | San Rafael | 10-05-2026 12:00 | 14,1 | 67,8 | 0 | 0,5 | 170 | 499,4 | 996,5 |
| 48 | San Rafael | 10-05-2026 11:45 | 13,2 | 70,5 | 0 | 1 | 161 | 734,4 | 996,8 |
| 47 | San Rafael | 10-05-2026 11:30 | 12,1 | 72,1 | 0 | 1 | 156 | 661,9 | 997,3 |
| 46 | San Rafael | 10-05-2026 11:15 | 11,8 | 73,2 | 0 | 1 | 174 | 695,6 | 997,3 |
| 45 | San Rafael | 10-05-2026 11:00 | 11,2 | 74,7 | 0 | 1 | 166 | 665,6 | 997,6 |
| 44 | San Rafael | 10-05-2026 10:45 | 10,9 | 75,2 | 0 | 1 | 160 | 634,4 | 997,8 |
| 43 | San Rafael | 10-05-2026 10:30 | 10,6 | 76,9 | 0 | 0,5 | 161 | 603,1 | 997,9 |
| 42 | San Rafael | 10-05-2026 10:15 | 10,2 | 78,2 | 0 | 1 | 168 | 516,9 | 997,9 |
| 41 | San Rafael | 10-05-2026 10:00 | 9,5 | 79,4 | 0 | 1 | 168 | 358,1 | 997,8 |
| 40 | San Rafael | 10-05-2026 09:45 | 9,1 | 82,6 | 0 | 0,5 | 171 | 475,6 | 998 |
| 39 | San Rafael | 10-05-2026 09:30 | 8,5 | 89,5 | 0 | 0 | 170 | 425,6 | 998,1 |
| 38 | San Rafael | 10-05-2026 09:15 | 8 | 93,5 | 0 | 0 | 168 | 373,1 | 998 |
| 37 | San Rafael | 10-05-2026 09:00 | 8,3 | 96,3 | 0 | 0 | 168 | 223,1 | 997,9 |
| 36 | San Rafael | 10-05-2026 08:45 | 5,6 | 97,9 | 0 | 0 | 168 | 216,9 | 998 |
| 35 | San Rafael | 10-05-2026 08:30 | 4,4 | 98,9 | 0 | 0 | 168 | 169,4 | 997,7 |
| 34 | San Rafael | 10-05-2026 08:15 | 2,6 | 98,3 | 0 | 0 | 168 | 151,9 | 997,6 |
| 33 | San Rafael | 10-05-2026 08:00 | 1,5 | 99,1 | 0 | 0 | 168 | 73,1 | 997,7 |
| 32 | San Rafael | 10-05-2026 07:45 | -0,3 | 98,7 | 0 | 0 | 168 | 11,9 | 997,6 |
| 31 | San Rafael | 10-05-2026 07:30 | -0,4 | 98,3 | 0 | 0 | 168 | 4,4 | 997,5 |
| 30 | San Rafael | 10-05-2026 07:15 | 0 | 98,5 | 0 | 0 | 168 | 0,6 | 997,4 |
| 29 | San Rafael | 10-05-2026 07:00 | 0,1 | 98,4 | 0 | 0 | 168 | 0,6 | 997,7 |
| 28 | San Rafael | 10-05-2026 06:45 | 0 | 98,4 | 0 | 0 | 168 | 0,6 | 997,7 |
| 27 | San Rafael | 10-05-2026 06:30 | -0,3 | 98,2 | 0 | 0 | 168 | 0,6 | 997,6 |
| 26 | San Rafael | 10-05-2026 06:15 | -0,1 | 98,2 | 0 | 0 | 168 | 0,6 | 997,6 |
| 25 | San Rafael | 10-05-2026 06:00 | 0,1 | 97,8 | 0 | 0 | 168 | 0,6 | 997,6 |
| 24 | San Rafael | 10-05-2026 05:45 | 0,4 | 97,9 | 0 | 0 | 168 | 0,6 | 997,6 |
| 23 | San Rafael | 10-05-2026 05:30 | 0,6 | 97,8 | 0 | 0 | 168 | 0,6 | 997,5 |
| 22 | San Rafael | 10-05-2026 05:15 | 0,7 | 97,7 | 0 | 0 | 168 | 0,6 | 997,6 |
| 21 | San Rafael | 10-05-2026 05:00 | 1 | 97,7 | 0 | 0 | 168 | 0,6 | 997,4 |
| 20 | San Rafael | 10-05-2026 04:45 | 0,2 | 97,3 | 0 | 0 | 168 | 0,6 | 997,5 |
| 19 | San Rafael | 10-05-2026 04:30 | 0,6 | 97 | 0 | 0 | 168 | 0,6 | 997,3 |
| 18 | San Rafael | 10-05-2026 04:15 | 1,3 | 97 | 0 | 0 | 168 | 0,6 | 997,4 |
| 17 | San Rafael | 10-05-2026 04:00 | 1,5 | 97,1 | 0 | 0 | 168 | 0,6 | 997,2 |
| 16 | San Rafael | 10-05-2026 03:45 | 2,2 | 96,8 | 0 | 0 | 168 | 0,6 | 997,5 |
| 15 | San Rafael | 10-05-2026 03:30 | 2,3 | 96,1 | 0 | 0 | 168 | 0,6 | 997,4 |
| 14 | San Rafael | 10-05-2026 03:15 | 2,6 | 96,2 | 0 | 0 | 168 | 0,6 | 997,5 |
| 13 | San Rafael | 10-05-2026 03:00 | 2,2 | 96,2 | 0 | 0 | 171 | 0,6 | 997,4 |
| 12 | San Rafael | 10-05-2026 02:45 | 2,7 | 95,9 | 0 | 0 | 171 | 0,6 | 997,6 |
| 11 | San Rafael | 10-05-2026 02:30 | 3,1 | 95,5 | 0 | 0 | 171 | 0,6 | 997,7 |
| 10 | San Rafael | 10-05-2026 02:15 | 4,3 | 95,7 | 0 | 0 | 171 | 0,6 | 997,9 |
| 9 | San Rafael | 10-05-2026 02:00 | 4,2 | 95,5 | 0 | 0 | 171 | 0,6 | 997,9 |
| 8 | San Rafael | 10-05-2026 01:45 | 4,5 | 95 | 0 | 0 | 171 | 0,6 | 998 |
| 7 | San Rafael | 10-05-2026 01:30 | 4,9 | 95,3 | 0 | 0 | 171 | 0,6 | 998,1 |
| 6 | San Rafael | 10-05-2026 01:15 | 5,2 | 95,8 | 0 | 0 | 171 | 0,6 | 998,1 |
| 5 | San Rafael | 10-05-2026 01:00 | 4,2 | 95 | 0 | 0 | 171 | 0,6 | 998,2 |
| 4 | San Rafael | 10-05-2026 00:45 | 4 | 94,6 | 0 | 0 | 171 | 0,6 | 998,2 |
| 3 | San Rafael | 10-05-2026 00:30 | 4,9 | 94 | 0 | 0 | 171 | 0,6 | 998,1 |
| 2 | San Rafael | 10-05-2026 00:15 | 5,4 | 94,5 | 0 | 0 | 170 | 0,6 | 998,4 |
| 1 | San Rafael | 10-05-2026 00:00 | 4,3 | 93,1 | 0 | 0 | 170 | 0,6 | 998,3 |